Time;durP1;ratioP1;P1;durP2;ratioP2;P2;SDS_P1;SDS_P2;PMS_P1;PMS_P2;Temp;Humidity;BMP_temperature;BMP_pressure;BME280_temperature;BME280_humidity;BME280_pressure;Samples;Min_cycle;Max_cycle;Signal;HPM_P1;HPM_P2
2022/11/24 00:01:50;;;;;;;;;;;7.60;99.90;;;;;;5154902;27;19914;-40
2022/11/24 00:04:15;;;;;;;;;;;7.60;99.90;;;;;;5155314;27;19911;-40
2022/11/24 00:06:41;;;;;;;;;;;7.60;99.90;;;;;;5154756;27;19967;-39
2022/11/24 00:09:06;;;;;;;;;;;7.60;99.90;;;;;;5155541;27;19907;-41
2022/11/24 00:11:33;;;;;;;;;;;7.50;99.90;;;;;;5154342;27;20361;-40
2022/11/24 00:13:59;;;;;;;;;;;7.50;99.90;;;;;;5153511;27;19915;-40
2022/11/24 00:16:43;;;;;;;;;;;7.50;99.90;;;;;;5155144;27;19925;-40
2022/11/24 00:19:08;;;;;;;;;;;7.50;99.90;;;;;;5155326;27;19968;-39
2022/11/24 00:21:34;;;;;;;;;;;7.50;99.90;;;;;;5153929;27;19954;-40
2022/11/24 00:24:00;;;;;;;;;;;7.40;99.90;;;;;;5155103;27;19960;-41
2022/11/24 00:26:30;;;;;;;;;;;7.40;99.90;;;;;;5155087;27;20350;-41
2022/11/24 00:28:57;;;;;;;;;;;7.40;99.90;;;;;;5154207;27;19969;-39
2022/11/24 00:31:27;;;;;;;;;;;7.40;99.90;;;;;;5154968;27;19907;-39
2022/11/24 00:33:53;;;;;;;;;;;7.30;99.90;;;;;;5154930;27;19917;-41
2022/11/24 00:36:20;;;;;;;;;;;7.30;99.90;;;;;;5154004;27;19907;-40
2022/11/24 00:38:45;;;;;;;;;;;7.20;99.90;;;;;;5154705;27;19907;-41
2022/11/24 00:41:11;;;;;;;;;;;7.20;99.90;;;;;;5154884;27;19968;-40
2022/11/24 00:43:37;;;;;;;;;;;7.20;99.90;;;;;;5153321;27;19911;-41
2022/11/24 00:46:02;;;;;;;;;;;7.10;99.90;;;;;;5154885;27;19958;-41
2022/11/24 00:48:29;;;;;;;;;;;7.10;99.90;;;;;;5154561;27;19907;-41
2022/11/24 00:50:58;;;;;;;;;;;7.10;99.90;;;;;;5153379;27;20273;-41
2022/11/24 00:53:24;;;;;;;;;;;7.10;99.90;;;;;;5154554;27;20396;-39
2022/11/24 00:55:50;;;;;;;;;;;7.00;99.90;;;;;;5154484;27;19907;-40
2022/11/24 00:58:15;;;;;;;;;;;7.00;99.90;;;;;;5153624;27;19908;-39
2022/11/24 01:00:41;;;;;;;;;;;7.00;99.90;;;;;;5154330;27;19915;-40
2022/11/24 01:03:06;;;;;;;;;;;6.90;99.90;;;;;;5153652;27;19914;-40
2022/11/24 01:05:35;;;;;;;;;;;6.90;99.90;;;;;;5154310;27;20006;-41
2022/11/24 01:08:00;;;;;;;;;;;6.90;99.90;;;;;;5154396;27;19907;-39
2022/11/24 01:10:26;;;;;;;;;;;6.90;99.90;;;;;;5153686;27;19922;-40
2022/11/24 01:12:51;;;;;;;;;;;6.90;99.90;;;;;;5153626;27;20385;-42
2022/11/24 01:15:17;;;;;;;;;;;6.90;99.90;;;;;;5154400;27;19911;-40
2022/11/24 01:17:42;;;;;;;;;;;6.80;99.90;;;;;;5153441;27;19907;-39
2022/11/24 01:20:08;;;;;;;;;;;6.80;99.90;;;;;;5154033;27;19938;-40
2022/11/24 01:22:34;;;;;;;;;;;6.80;99.90;;;;;;5154053;27;20005;-42
2022/11/24 01:24:59;;;;;;;;;;;6.80;99.90;;;;;;5153691;27;19907;-41
2022/11/24 01:27:25;;;;;;;;;;;6.80;99.90;;;;;;5154348;27;20279;-40
2022/11/24 01:29:50;;;;;;;;;;;6.80;99.90;;;;;;5154040;27;19951;-41
2022/11/24 01:32:15;;;;;;;;;;;6.90;99.90;;;;;;5153201;27;19915;-41
2022/11/24 01:34:41;;;;;;;;;;;6.90;99.90;;;;;;5154066;27;19907;-40
2022/11/24 01:37:06;;;;;;;;;;;6.90;99.90;;;;;;5154431;27;20365;-39
2022/11/24 01:39:32;;;;;;;;;;;7.00;99.90;;;;;;5152985;27;20300;-39
2022/11/24 01:42:00;;;;;;;;;;;6.90;99.90;;;;;;5153726;27;19907;-40
2022/11/24 01:44:26;;;;;;;;;;;6.90;99.90;;;;;;5154130;27;19911;-40
2022/11/24 01:46:56;;;;;;;;;;;6.90;99.90;;;;;;5153319;27;20369;-40
2022/11/24 01:49:27;;;;;;;;;;;7.00;99.90;;;;;;5153637;27;19957;-40
2022/11/24 01:51:58;;;;;;;;;;;7.00;99.90;;;;;;5156235;27;19919;-39
2022/11/24 01:54:26;;;;;;;;;;;7.00;99.90;;;;;;5157336;27;19911;-43
2022/11/24 01:56:53;;;;;;;;;;;7.00;99.90;;;;;;5157815;27;19911;-40
2022/11/24 01:59:19;;;;;;;;;;;7.00;99.90;;;;;;5157147;27;19915;-39
2022/11/24 02:01:49;;;;;;;;;;;7.10;99.90;;;;;;5157025;27;20215;-41
2022/11/24 02:04:16;;;;;;;;;;;7.10;99.90;;;;;;5158076;27;19907;-42
2022/11/24 02:06:43;;;;;;;;;;;7.10;99.90;;;;;;5156810;27;19951;-42
2022/11/24 02:09:08;;;;;;;;;;;7.10;99.90;;;;;;5158053;27;20015;-39
2022/11/24 02:11:35;;;;;;;;;;;7.10;99.90;;;;;;5157349;27;19935;-39
2022/11/24 02:14:02;;;;;;;;;;;7.10;99.90;;;;;;5156643;27;19918;-40
2022/11/24 02:16:28;;;;;;;;;;;7.00;99.90;;;;;;5157389;27;19907;-40
2022/11/24 02:18:54;;;;;;;;;;;7.00;99.90;;;;;;5157649;27;19907;-40
2022/11/24 02:21:19;;;;;;;;;;;7.00;99.90;;;;;;5156972;27;19952;-40
2022/11/24 02:23:58;;;;;;;;;;;7.00;99.90;;;;;;5157557;27;19907;-41
2022/11/24 02:26:24;;;;;;;;;;;6.90;99.90;;;;;;5157404;27;19939;-39
2022/11/24 02:28:49;;;;;;;;;;;6.90;99.90;;;;;;5156534;27;19965;-40
2022/11/24 02:31:15;;;;;;;;;;;6.90;99.90;;;;;;5157281;27;19907;-40
2022/11/24 02:33:40;;;;;;;;;;;6.80;99.90;;;;;;5157001;27;19915;-39
2022/11/24 02:36:06;;;;;;;;;;;6.80;99.90;;;;;;5156538;27;19907;-41
2022/11/24 02:38:33;;;;;;;;;;;6.70;99.90;;;;;;5157483;27;20372;-41
2022/11/24 02:41:00;;;;;;;;;;;6.70;99.90;;;;;;5156719;27;19914;-42
2022/11/24 02:43:28;;;;;;;;;;;6.70;99.90;;;;;;5156014;27;19941;-39
2022/11/24 02:45:54;;;;;;;;;;;6.70;99.90;;;;;;5157073;27;20394;-42
2022/11/24 02:48:19;;;;;;;;;;;6.70;99.90;;;;;;5157028;27;20406;-40
2022/11/24 02:50:45;;;;;;;;;;;6.70;99.90;;;;;;5155847;27;20005;-40
2022/11/24 02:53:10;;;;;;;;;;;6.70;99.90;;;;;;5156863;27;20051;-40
2022/11/24 02:55:36;;;;;;;;;;;6.70;99.90;;;;;;5155995;27;20372;-41
2022/11/24 02:58:01;;;;;;;;;;;6.70;99.90;;;;;;5156836;27;19915;-39
2022/11/24 03:00:27;;;;;;;;;;;6.80;99.90;;;;;;5156626;27;20276;-40
2022/11/24 03:02:52;;;;;;;;;;;6.70;99.90;;;;;;5154539;27;20018;-39
2022/11/24 03:05:18;;;;;;;;;;;6.80;99.90;;;;;;5156635;27;19914;-41
2022/11/24 03:07:44;;;;;;;;;;;6.70;99.90;;;;;;5156386;27;19911;-43
2022/11/24 03:10:09;;;;;;;;;;;6.80;99.90;;;;;;5155562;27;19911;-40
2022/11/24 03:12:35;;;;;;;;;;;6.90;99.90;;;;;;5156166;27;20005;-41
2022/11/24 03:15:02;;;;;;;;;;;6.90;99.90;;;;;;5156342;27;19907;-40
2022/11/24 03:17:27;;;;;;;;;;;6.90;99.90;;;;;;5155725;27;19914;-40
2022/11/24 03:19:53;;;;;;;;;;;6.90;99.90;;;;;;5156454;27;19907;-39
2022/11/24 03:22:18;;;;;;;;;;;6.90;99.90;;;;;;5156464;27;20279;-41
2022/11/24 03:24:44;;;;;;;;;;;6.90;99.90;;;;;;5155218;27;19911;-40
2022/11/24 03:27:09;;;;;;;;;;;6.90;99.90;;;;;;5156243;27;20048;-40
2022/11/24 03:29:35;;;;;;;;;;;6.80;99.90;;;;;;5155948;27;20273;-40
2022/11/24 03:32:00;;;;;;;;;;;6.80;99.90;;;;;;5155642;27;19919;-40
2022/11/24 03:34:26;;;;;;;;;;;6.90;99.90;;;;;;5156067;27;19987;-42
2022/11/24 03:36:51;;;;;;;;;;;6.90;99.90;;;;;;5156045;27;19907;-39
2022/11/24 03:39:17;;;;;;;;;;;7.00;99.90;;;;;;5154823;27;19915;-42
2022/11/24 03:41:42;;;;;;;;;;;7.00;99.90;;;;;;5155666;27;19911;-40
2022/11/24 03:44:08;;;;;;;;;;;7.00;99.90;;;;;;5155826;27;19938;-43
2022/11/24 03:46:33;;;;;;;;;;;7.00;99.90;;;;;;5155152;27;19911;-41
2022/11/24 03:48:59;;;;;;;;;;;7.00;99.90;;;;;;5155846;27;20269;-40
2022/11/24 03:51:24;;;;;;;;;;;7.00;99.90;;;;;;5155255;27;19919;-40
2022/11/24 03:53:50;;;;;;;;;;;7.00;99.90;;;;;;5154896;27;19915;-40
2022/11/24 03:56:15;;;;;;;;;;;7.00;99.90;;;;;;5155786;27;19907;-40
2022/11/24 03:58:41;;;;;;;;;;;6.90;99.90;;;;;;5155555;27;19911;-41
2022/11/24 04:01:06;;;;;;;;;;;6.90;99.90;;;;;;5154715;27;20010;-40
2022/11/24 04:03:32;;;;;;;;;;;6.90;99.90;;;;;;5155617;27;19907;-41
2022/11/24 04:05:57;;;;;;;;;;;6.80;99.90;;;;;;5154954;27;19907;-39
2022/11/24 04:08:23;;;;;;;;;;;6.80;99.90;;;;;;5155543;27;19951;-39
2022/11/24 04:10:50;;;;;;;;;;;6.80;99.90;;;;;;5154776;27;20258;-40
2022/11/24 04:13:16;;;;;;;;;;;6.80;99.90;;;;;;5153965;27;20506;-39
2022/11/24 04:15:42;;;;;;;;;;;6.70;99.90;;;;;;5155156;27;19957;-41
2022/11/24 04:18:08;;;;;;;;;;;6.80;99.90;;;;;;5155050;27;19942;-42
2022/11/24 04:20:33;;;;;;;;;;;6.80;99.90;;;;;;5154443;27;19994;-39
2022/11/24 04:22:59;;;;;;;;;;;6.80;99.90;;;;;;5155328;27;19942;-40
2022/11/24 04:25:24;;;;;;;;;;;6.80;99.90;;;;;;5155270;27;19907;-41
2022/11/24 04:27:54;;;;;;;;;;;6.90;99.90;;;;;;5153774;27;19914;-40
2022/11/24 04:30:20;;;;;;;;;;;6.90;99.90;;;;;;5155333;27;20007;-39
2022/11/24 04:32:46;;;;;;;;;;;6.90;99.90;;;;;;5154970;27;20207;-40
2022/11/24 04:35:12;;;;;;;;;;;6.80;99.90;;;;;;5154177;27;20034;-39
2022/11/24 04:37:37;;;;;;;;;;;6.80;99.90;;;;;;5154657;27;19960;-40
2022/11/24 04:40:03;;;;;;;;;;;6.70;99.90;;;;;;5154647;27;19919;-38
2022/11/24 04:42:29;;;;;;;;;;;6.70;99.90;;;;;;5153933;27;19908;-39
2022/11/24 04:44:55;;;;;;;;;;;6.70;99.90;;;;;;5154808;27;19911;-39
2022/11/24 04:47:21;;;;;;;;;;;6.60;99.90;;;;;;5154665;27;19907;-39
2022/11/24 04:49:47;;;;;;;;;;;6.60;99.90;;;;;;5152956;27;20387;-40
2022/11/24 04:52:13;;;;;;;;;;;6.50;99.90;;;;;;5154830;27;19919;-39
2022/11/24 04:54:39;;;;;;;;;;;6.40;99.90;;;;;;5154362;27;19907;-40
2022/11/24 04:57:04;;;;;;;;;;;6.40;99.90;;;;;;5153767;27;19907;-39
2022/11/24 04:59:29;;;;;;;;;;;6.40;99.90;;;;;;5154592;27;19914;-40
2022/11/24 05:01:55;;;;;;;;;;;6.30;99.90;;;;;;5154481;27;19907;-40
2022/11/24 05:04:20;;;;;;;;;;;6.20;99.90;;;;;;5153617;27;20375;-40
2022/11/24 05:06:46;;;;;;;;;;;6.20;99.90;;;;;;5154477;27;19918;-42
2022/11/24 05:09:15;;;;;;;;;;;6.10;99.90;;;;;;5153400;27;19913;-38
2022/11/24 05:11:40;;;;;;;;;;;6.10;99.90;;;;;;5154133;27;19922;-40
2022/11/24 05:14:06;;;;;;;;;;;6.10;99.90;;;;;;5154251;27;19907;-38
2022/11/24 05:16:31;;;;;;;;;;;6.10;99.90;;;;;;5153669;27;19915;-41
2022/11/24 05:18:57;;;;;;;;;;;6.10;99.90;;;;;;5154502;27;19914;-39
2022/11/24 05:21:22;;;;;;;;;;;6.10;99.90;;;;;;5154300;27;19907;-41
2022/11/24 05:23:48;;;;;;;;;;;6.10;99.90;;;;;;5153503;27;19907;-44
2022/11/24 05:26:13;;;;;;;;;;;6.10;99.90;;;;;;5155705;27;19953;-39
2022/11/24 05:28:39;;;;;;;;;;;6.10;99.90;;;;;;5158625;27;19907;-39
2022/11/24 05:31:04;;;;;;;;;;;6.10;99.90;;;;;;5157583;27;19911;-39
2022/11/24 05:33:32;;;;;;;;;;;6.10;99.90;;;;;;5158477;27;19919;-39
2022/11/24 05:36:04;;;;;;;;;;;6.10;99.90;;;;;;5158418;27;19914;-39
2022/11/24 05:38:30;;;;;;;;;;;6.10;99.90;;;;;;5156990;27;20030;-42
2022/11/24 05:40:59;;;;;;;;;;;6.10;99.90;;;;;;5157980;27;19942;-42
2022/11/24 05:43:25;;;;;;;;;;;6.10;99.90;;;;;;5158400;27;20014;-40
2022/11/24 05:45:50;;;;;;;;;;;6.10;99.90;;;;;;5157458;27;20025;-41
2022/11/24 05:48:16;;;;;;;;;;;6.00;99.90;;;;;;5157781;27;19914;-39
2022/11/24 05:50:41;;;;;;;;;;;6.00;99.90;;;;;;5157836;27;19919;-39
2022/11/24 05:53:08;;;;;;;;;;;6.00;99.90;;;;;;5157234;27;19915;-41
2022/11/24 05:55:34;;;;;;;;;;;6.00;99.90;;;;;;5158097;27;19914;-41
2022/11/24 05:58:00;;;;;;;;;;;6.00;99.90;;;;;;5157643;27;19907;-40
2022/11/24 06:00:26;;;;;;;;;;;6.00;99.90;;;;;;5156999;27;19918;-43
2022/11/24 06:02:52;;;;;;;;;;;6.00;99.90;;;;;;5157883;27;19907;-39
2022/11/24 06:05:17;;;;;;;;;;;6.00;99.90;;;;;;5157792;27;19908;-39
2022/11/24 06:07:43;;;;;;;;;;;6.00;99.90;;;;;;5156929;27;19950;-41
2022/11/24 06:10:09;;;;;;;;;;;6.00;99.90;;;;;;5157654;27;19911;-40
2022/11/24 06:12:34;;;;;;;;;;;6.00;99.90;;;;;;5157006;27;19919;-39
2022/11/24 06:15:00;;;;;;;;;;;5.90;99.90;;;;;;5157565;27;19907;-39
2022/11/24 06:17:25;;;;;;;;;;;5.90;99.90;;;;;;5157662;27;20403;-39
2022/11/24 06:19:51;;;;;;;;;;;5.90;99.90;;;;;;5156532;27;19961;-41
2022/11/24 06:22:18;;;;;;;;;;;5.90;99.90;;;;;;5157511;27;19907;-39
2022/11/24 06:24:44;;;;;;;;;;;5.90;99.90;;;;;;5157262;27;19907;-40
2022/11/24 06:27:11;;;;;;;;;;;5.80;99.90;;;;;;5156744;27;19907;-39
2022/11/24 06:29:36;;;;;;;;;;;5.80;99.90;;;;;;5157427;27;19907;-39
2022/11/24 06:32:02;;;;;;;;;;;5.80;99.90;;;;;;5156350;27;19971;-42
2022/11/24 06:34:27;;;;;;;;;;;5.80;99.90;;;;;;5155990;27;19994;-39
2022/11/24 06:36:53;;;;;;;;;;;5.70;99.90;;;;;;5156738;27;19918;-40
2022/11/24 06:39:18;;;;;;;;;;;5.70;99.90;;;;;;5156519;27;19914;-40
2022/11/24 06:41:44;;;;;;;;;;;5.70;99.90;;;;;;5156177;27;19915;-39
2022/11/24 06:44:09;;;;;;;;;;;5.70;99.90;;;;;;5157001;27;19907;-40
2022/11/24 06:46:35;;;;;;;;;;;5.80;99.90;;;;;;5156928;27;19914;-39
2022/11/24 06:49:01;;;;;;;;;;;5.80;99.90;;;;;;5156281;27;19957;-40
2022/11/24 06:51:26;;;;;;;;;;;5.80;99.90;;;;;;5155747;27;19963;-41
2022/11/24 06:53:52;;;;;;;;;;;5.80;99.90;;;;;;5155933;27;19919;-40
2022/11/24 06:56:18;;;;;;;;;;;5.80;99.90;;;;;;5155847;27;19946;-40
2022/11/24 06:58:44;;;;;;;;;;;5.70;99.90;;;;;;5156003;27;19911;-40
2022/11/24 07:01:17;;;;;;;;;;;5.70;99.90;;;;;;5156782;27;20357;-39
2022/11/24 07:03:43;;;;;;;;;;;5.70;99.90;;;;;;5156239;27;19907;-39
2022/11/24 07:06:08;;;;;;;;;;;5.70;99.90;;;;;;5156715;27;20334;-40
2022/11/24 07:08:34;;;;;;;;;;;5.60;99.90;;;;;;5156426;27;19912;-39
2022/11/24 07:11:07;;;;;;;;;;;5.60;99.90;;;;;;5155940;27;19914;-39
2022/11/24 07:13:32;;;;;;;;;;;5.60;99.90;;;;;;5156435;27;19915;-41
2022/11/24 07:15:58;;;;;;;;;;;5.60;99.90;;;;;;5155765;27;19914;-39
2022/11/24 07:18:23;;;;;;;;;;;5.60;99.90;;;;;;5156474;27;20319;-39
2022/11/24 07:20:49;;;;;;;;;;;5.60;99.90;;;;;;5156354;27;19914;-39
2022/11/24 07:23:14;;;;;;;;;;;5.60;99.90;;;;;;5155537;27;19911;-41
2022/11/24 07:25:40;;;;;;;;;;;5.60;99.90;;;;;;5156292;27;19908;-40
2022/11/24 07:28:05;;;;;;;;;;;5.60;99.90;;;;;;5156438;27;20018;-39
2022/11/24 07:30:31;;;;;;;;;;;5.60;99.90;;;;;;5155312;27;19907;-40
2022/11/24 07:33:00;;;;;;;;;;;5.70;99.90;;;;;;5156112;27;20014;-41
2022/11/24 07:35:26;;;;;;;;;;;5.70;99.90;;;;;;5156218;27;19907;-40
2022/11/24 07:37:55;;;;;;;;;;;5.80;99.90;;;;;;5155177;27;20362;-39
2022/11/24 07:40:21;;;;;;;;;;;5.90;99.90;;;;;;5156071;27;20052;-39
2022/11/24 07:42:46;;;;;;;;;;;5.90;99.90;;;;;;5155642;27;20002;-39
2022/11/24 07:45:12;;;;;;;;;;;6.00;99.90;;;;;;5155144;27;19911;-39
2022/11/24 07:47:38;;;;;;;;;;;6.00;99.90;;;;;;5155774;27;19907;-40
2022/11/24 07:50:03;;;;;;;;;;;6.00;99.90;;;;;;5154837;27;19971;-40
2022/11/24 07:52:29;;;;;;;;;;;6.10;99.90;;;;;;5154981;27;20318;-39
2022/11/24 07:54:54;;;;;;;;;;;6.20;99.90;;;;;;5154168;27;19917;-40
2022/11/24 07:57:20;;;;;;;;;;;6.20;99.90;;;;;;5155026;27;19911;-40
2022/11/24 07:59:45;;;;;;;;;;;6.20;99.90;;;;;;5154762;27;20330;-40
2022/11/24 08:02:11;;;;;;;;;;;6.30;99.90;;;;;;5154592;27;19976;-39
2022/11/24 08:04:37;;;;;;;;;;;6.30;99.90;;;;;;5155163;27;20026;-39
2022/11/24 08:07:02;;;;;;;;;;;6.40;99.90;;;;;;5154459;27;20347;-39
2022/11/24 08:09:28;;;;;;;;;;;6.40;99.90;;;;;;5155505;27;19907;-40
2022/11/24 08:11:53;;;;;;;;;;;6.50;99.90;;;;;;5155153;27;20386;-40
2022/11/24 08:14:19;;;;;;;;;;;6.50;99.90;;;;;;5154918;27;19930;-40
2022/11/24 08:16:44;;;;;;;;;;;6.60;99.90;;;;;;5155191;27;19911;-41
2022/11/24 08:19:10;;;;;;;;;;;6.70;99.90;;;;;;5154736;27;20286;-39
2022/11/24 08:21:36;;;;;;;;;;;6.70;99.90;;;;;;5155101;27;20380;-39
2022/11/24 08:24:02;;;;;;;;;;;6.70;99.90;;;;;;5154757;27;19907;-42
2022/11/24 08:26:27;;;;;;;;;;;6.90;99.90;;;;;;5154624;27;19913;-40
2022/11/24 08:28:54;;;;;;;;;;;6.90;99.90;;;;;;5154877;27;20010;-39
2022/11/24 08:31:20;;;;;;;;;;;7.00;99.90;;;;;;5154800;27;19907;-40
2022/11/24 08:33:45;;;;;;;;;;;7.00;99.90;;;;;;5153981;27;20313;-42
2022/11/24 08:36:12;;;;;;;;;;;7.10;99.90;;;;;;5154644;27;19927;-40
2022/11/24 08:38:37;;;;;;;;;;;7.20;99.90;;;;;;5154574;27;19914;-40
2022/11/24 08:41:04;;;;;;;;;;;7.30;99.90;;;;;;5153086;27;19911;-40
2022/11/24 08:43:30;;;;;;;;;;;7.30;99.90;;;;;;5148216;27;19907;-39
2022/11/24 08:46:02;;;;;;;;;;;7.40;99.90;;;;;;5152439;27;19907;-40
2022/11/24 08:48:28;;;;;;;;;;;7.50;99.90;;;;;;5150959;27;20389;-40
2022/11/24 08:50:53;;;;;;;;;;;7.50;99.90;;;;;;5154029;27;19930;-40
2022/11/24 08:53:19;;;;;;;;;;;7.60;99.90;;;;;;5153740;27;19985;-41
2022/11/24 08:55:44;;;;;;;;;;;7.60;99.90;;;;;;5152747;27;19911;-39
2022/11/24 08:58:10;;;;;;;;;;;7.70;99.90;;;;;;5153517;27;20258;-42
2022/11/24 09:00:35;;;;;;;;;;;7.70;99.90;;;;;;5153522;27;20240;-40
2022/11/24 09:03:01;;;;;;;;;;;7.70;99.90;;;;;;5152800;27;20388;-41
2022/11/24 09:05:26;;;;;;;;;;;7.80;99.90;;;;;;5153447;27;19907;-41
2022/11/24 09:07:52;;;;;;;;;;;7.90;99.90;;;;;;5153204;27;19954;-39
2022/11/24 09:10:17;;;;;;;;;;;7.90;99.90;;;;;;5152339;27;19911;-40
2022/11/24 09:12:43;;;;;;;;;;;7.90;99.90;;;;;;5153510;27;19930;-41
2022/11/24 09:15:09;;;;;;;;;;;8.00;99.90;;;;;;5153569;27;19907;-40
2022/11/24 09:17:35;;;;;;;;;;;8.00;99.90;;;;;;5153391;27;19971;-41
2022/11/24 09:20:01;;;;;;;;;;;8.10;99.90;;;;;;5154524;27;20005;-39
2022/11/24 09:22:26;;;;;;;;;;;8.10;99.90;;;;;;5153538;27;20002;-41
2022/11/24 09:24:52;;;;;;;;;;;8.20;99.90;;;;;;5153034;27;20259;-39
2022/11/24 09:27:17;;;;;;;;;;;8.20;99.90;;;;;;5154008;27;19966;-42
2022/11/24 09:29:42;;;;;;;;;;;8.30;99.90;;;;;;5153357;27;19907;-42
2022/11/24 09:32:08;;;;;;;;;;;8.30;99.90;;;;;;5154535;27;19915;-40
2022/11/24 09:34:33;;;;;;;;;;;8.40;99.90;;;;;;5154397;27;19913;-40
2022/11/24 09:36:59;;;;;;;;;;;8.40;99.90;;;;;;5152285;27;20502;-40
2022/11/24 09:39:25;;;;;;;;;;;8.50;99.90;;;;;;5153009;27;20393;-40
2022/11/24 09:42:01;;;;;;;;;;;8.60;99.90;;;;;;5153489;27;19995;-44
2022/11/24 09:44:48;;;;;;;;;;;8.70;99.90;;;;;;5152902;27;19911;-40
2022/11/24 09:47:13;;;;;;;;;;;8.70;99.90;;;;;;5153697;27;19907;-39
2022/11/24 09:50:08;;;;;;;;;;;8.80;99.90;;;;;;5153645;27;19914;-40
2022/11/24 09:52:50;;;;;;;;;;;8.80;99.90;;;;;;5129550;27;20297;-40
2022/11/24 09:55:34;;;;;;;;;;;8.90;99.90;;;;;;5153123;27;19934;-40
2022/11/24 09:58:08;;;;;;;;;;;9.00;99.90;;;;;;5152215;27;19907;-40
2022/11/24 10:00:34;;;;;;;;;;;9.00;99.90;;;;;;5152916;27;19942;-39
2022/11/24 10:03:00;;;;;;;;;;;9.10;99.90;;;;;;5152985;27;20259;-39
2022/11/24 10:05:26;;;;;;;;;;;9.10;99.90;;;;;;5151997;27;19914;-40
2022/11/24 10:08:02;;;;;;;;;;;9.10;99.90;;;;;;5152631;27;19915;-39
2022/11/24 10:10:36;;;;;;;;;;;9.20;99.90;;;;;;5152960;27;19907;-41
2022/11/24 10:13:13;;;;;;;;;;;9.20;99.90;;;;;;5154656;27;19922;-40
2022/11/24 10:15:51;;;;;;;;;;;9.30;99.90;;;;;;5156140;27;19908;-42
2022/11/24 10:18:21;;;;;;;;;;;9.40;99.90;;;;;;5156305;27;19907;-42
2022/11/24 10:21:05;;;;;;;;;;;9.40;99.90;;;;;;5155330;27;19907;-42
2022/11/24 10:23:40;;;;;;;;;;;9.40;99.90;;;;;;5155418;27;20289;-41
2022/11/24 10:26:15;;;;;;;;;;;9.50;99.90;;;;;;5154847;27;19911;-42
2022/11/24 10:28:40;;;;;;;;;;;9.50;99.90;;;;;;5156091;27;19914;-39
2022/11/24 10:31:29;;;;;;;;;;;9.50;99.90;;;;;;5156365;27;19907;-41
2022/11/24 10:33:56;;;;;;;;;;;9.40;99.90;;;;;;5141184;27;19915;-39
2022/11/24 10:36:26;;;;;;;;;;;9.50;99.90;;;;;;5156075;27;19975;-41
2022/11/24 10:39:03;;;;;;;;;;;9.50;99.90;;;;;;5155914;27;19908;-41
2022/11/24 10:41:37;;;;;;;;;;;9.60;99.90;;;;;;5155867;27;19907;-42
2022/11/24 10:44:03;;;;;;;;;;;9.70;99.90;;;;;;5156697;27;19933;-40
2022/11/24 10:46:28;;;;;;;;;;;9.80;99.90;;;;;;5156322;27;19907;-41
2022/11/24 10:48:59;;;;;;;;;;;9.80;99.90;;;;;;5156075;27;19930;-39
2022/11/24 10:51:43;;;;;;;;;;;9.80;99.90;;;;;;5094460;27;1748141;-41
2022/11/24 10:54:11;;;;;;;;;;;9.80;99.90;;;;;;5156743;27;19954;-40
2022/11/24 10:56:40;;;;;;;;;;;9.70;99.90;;;;;;5156775;27;20030;-41
2022/11/24 10:59:19;;;;;;;;;;;9.70;99.90;;;;;;5156847;27;19914;-42
2022/11/24 11:01:44;;;;;;;;;;;9.70;99.90;;;;;;5155748;27;19911;-41
2022/11/24 11:04:17;;;;;;;;;;;9.70;99.90;;;;;;5156683;27;20254;-40
2022/11/24 11:06:42;;;;;;;;;;;9.70;99.90;;;;;;5156860;27;19911;-42
2022/11/24 11:09:08;;;;;;;;;;;9.70;99.90;;;;;;5155911;27;20331;-40
2022/11/24 11:11:34;;;;;;;;;;;9.80;99.90;;;;;;5156505;27;19907;-40
2022/11/24 11:14:00;;;;;;;;;;;9.80;99.90;;;;;;5156635;27;19918;-40
2022/11/24 11:16:32;;;;;;;;;;;9.90;99.90;;;;;;5155694;27;19911;-40
2022/11/24 11:19:00;;;;;;;;;;;10.10;99.90;;;;;;5156523;27;20285;-41
2022/11/24 11:21:27;;;;;;;;;;;10.40;99.90;;;;;;5156350;27;20401;-41
2022/11/24 11:23:52;;;;;;;;;;;10.50;99.90;;;;;;5154246;27;19930;-39
2022/11/24 11:26:30;;;;;;;;;;;10.70;99.90;;;;;;5156253;27;19914;-41
2022/11/24 11:28:56;;;;;;;;;;;10.70;99.90;;;;;;5155442;27;19914;-44
2022/11/24 11:31:22;;;;;;;;;;;10.80;99.90;;;;;;5156367;27;19907;-40
2022/11/24 11:34:16;;;;;;;;;;;10.90;99.90;;;;;;5156109;27;19940;-41
2022/11/24 11:36:44;;;;;;;;;;;10.90;99.90;;;;;;5132856;27;19907;-41
2022/11/24 11:39:18;;;;;;;;;;;11.00;99.90;;;;;;5156027;27;19958;-40
2022/11/24 11:41:44;;;;;;;;;;;11.00;99.90;;;;;;5156036;27;20388;-41
2022/11/24 11:44:21;;;;;;;;;;;11.00;99.90;;;;;;5155339;27;19907;-42
2022/11/24 11:46:47;;;;;;;;;;;11.00;99.90;;;;;;5155240;27;20298;-41
2022/11/24 11:49:12;;;;;;;;;;;11.10;99.90;;;;;;5155133;27;20362;-40
2022/11/24 11:51:38;;;;;;;;;;;11.20;99.90;;;;;;5154369;27;20410;-41
2022/11/24 11:54:11;;;;;;;;;;;11.20;99.90;;;;;;5156182;27;19922;-42
2022/11/24 11:56:43;;;;;;;;;;;11.20;99.90;;;;;;5151624;27;19914;-41
2022/11/24 11:59:14;;;;;;;;;;;11.30;99.90;;;;;;5153407;27;19991;-42
2022/11/24 12:01:58;;;;;;;;;;;11.40;99.90;;;;;;5155156;27;19915;-41
2022/11/24 12:04:42;;;;;;;;;;;11.40;99.90;;;;;;5154993;27;20012;-42
2022/11/24 12:07:19;;;;;;;;;;;11.50;99.90;;;;;;5156087;27;20346;-41
2022/11/24 12:09:48;;;;;;;;;;;11.50;99.90;;;;;;5155295;27;19907;-40
2022/11/24 12:12:28;;;;;;;;;;;11.60;99.90;;;;;;5155312;27;19922;-44
2022/11/24 12:14:53;;;;;;;;;;;11.60;99.90;;;;;;5156159;27;19914;-39
2022/11/24 12:17:29;;;;;;;;;;;11.70;99.90;;;;;;5156155;27;20266;-41
2022/11/24 12:19:54;;;;;;;;;;;11.70;99.90;;;;;;5155314;27;19907;-41
2022/11/24 12:22:26;;;;;;;;;;;11.80;99.90;;;;;;5154896;27;19918;-39
2022/11/24 12:25:10;;;;;;;;;;;11.80;99.90;;;;;;5154958;27;20040;-42
2022/11/24 12:27:48;;;;;;;;;;;11.70;99.90;;;;;;5155608;27;19918;-39
2022/11/24 12:30:17;;;;;;;;;;;11.70;99.90;;;;;;5155541;27;20395;-41
2022/11/24 12:32:59;;;;;;;;;;;11.70;99.90;;;;;;5154993;27;19918;-40
2022/11/24 12:35:26;;;;;;;;;;;11.80;99.90;;;;;;5154911;27;19997;-40
2022/11/24 12:38:07;;;;;;;;;;;11.70;99.90;;;;;;5155177;27;19930;-39
2022/11/24 12:40:38;;;;;;;;;;;11.80;99.90;;;;;;5155049;27;19917;-41
2022/11/24 12:43:03;;;;;;;;;;;11.90;99.90;;;;;;5155009;27;19914;-43
2022/11/24 12:45:37;;;;;;;;;;;11.90;99.90;;;;;;5155136;27;20261;-40
2022/11/24 12:48:11;;;;;;;;;;;12.00;99.90;;;;;;5154656;27;19907;-40
2022/11/24 12:50:37;;;;;;;;;;;12.10;99.90;;;;;;5155117;27;19950;-40
2022/11/24 12:53:03;;;;;;;;;;;12.10;99.90;;;;;;5154824;27;19921;-39
2022/11/24 12:55:31;;;;;;;;;;;12.20;99.90;;;;;;5154498;27;20005;-41
2022/11/24 12:58:09;;;;;;;;;;;12.20;99.90;;;;;;5154158;27;19911;-42
2022/11/24 13:00:39;;;;;;;;;;;12.20;99.90;;;;;;5154171;27;20005;-41
2022/11/24 13:03:07;;;;;;;;;;;12.30;99.90;;;;;;5153722;27;19911;-42
2022/11/24 13:05:42;;;;;;;;;;;12.30;99.90;;;;;;5153532;27;20326;-41
2022/11/24 13:08:08;;;;;;;;;;;12.40;99.90;;;;;;5153110;27;19934;-39
2022/11/24 13:10:37;;;;;;;;;;;12.50;99.90;;;;;;5153767;27;20551;-40
2022/11/24 13:13:10;;;;;;;;;;;12.40;99.90;;;;;;5153838;27;19941;-41
2022/11/24 13:15:53;;;;;;;;;;;12.40;99.90;;;;;;5153555;27;20273;-41
2022/11/24 13:18:37;;;;;;;;;;;12.50;99.90;;;;;;5154324;27;19907;-40
2022/11/24 13:21:23;;;;;;;;;;;12.50;99.90;;;;;;5154888;27;19980;-41
2022/11/24 13:23:55;;;;;;;;;;;12.70;99.90;;;;;;5154133;27;19921;-39
2022/11/24 13:26:27;;;;;;;;;;;12.90;99.90;;;;;;5154973;27;19914;-40
2022/11/24 13:28:59;;;;;;;;;;;13.20;99.90;;;;;;5154412;27;19964;-41
2022/11/24 13:31:25;;;;;;;;;;;13.40;99.90;;;;;;5154917;27;19931;-42
2022/11/24 13:33:50;;;;;;;;;;;13.60;99.90;;;;;;5154752;27;20279;-40
2022/11/24 13:36:21;;;;;;;;;;;13.70;99.90;;;;;;5154516;27;19907;-42
2022/11/24 13:38:47;;;;;;;;;;;13.70;99.90;;;;;;5154484;27;20010;-39
2022/11/24 13:41:31;;;;;;;;;;;13.60;99.90;;;;;;5154931;27;19954;-39
2022/11/24 13:44:15;;;;;;;;;;;13.40;99.90;;;;;;5154188;27;19998;-43
2022/11/24 13:46:55;;;;;;;;;;;13.10;99.90;;;;;;5154424;27;19926;-41
2022/11/24 13:49:21;;;;;;;;;;;12.90;99.90;;;;;;5158640;27;20301;-39
2022/11/24 13:51:46;;;;;;;;;;;12.70;99.90;;;;;;5157804;27;19919;-43
2022/11/24 13:54:12;;;;;;;;;;;12.60;99.90;;;;;;5158783;27;20289;-41
2022/11/24 13:56:38;;;;;;;;;;;12.70;99.90;;;;;;5157994;27;19960;-50
2022/11/24 13:59:23;;;;;;;;;;;12.90;99.90;;;;;;5158650;27;19908;-39
2022/11/24 14:01:55;;;;;;;;;;;12.80;99.90;;;;;;5157999;27;19907;-41
2022/11/24 14:04:24;;;;;;;;;;;12.70;99.90;;;;;;5158259;27;19907;-39
2022/11/24 14:06:50;;;;;;;;;;;12.70;99.90;;;;;;5157859;27;19915;-40
2022/11/24 14:09:30;;;;;;;;;;;12.90;99.90;;;;;;5158394;27;19915;-41
2022/11/24 14:12:05;;;;;;;;;;;13.00;99.90;;;;;;5158026;27;19911;-40
2022/11/24 14:14:30;;;;;;;;;;;13.10;99.90;;;;;;5158429;27;19911;-40
2022/11/24 14:17:26;;;;;;;;;;;13.20;99.90;;;;;;5158288;27;19989;-41
2022/11/24 14:19:56;;;;;;;;;;;13.40;99.90;;;;;;5136297;27;19907;-41
2022/11/24 14:22:21;;;;;;;;;;;13.40;99.90;;;;;;5139781;27;20270;-40
2022/11/24 14:24:51;;;;;;;;;;;13.40;99.90;;;;;;5157566;27;19911;-40
2022/11/24 14:27:19;;;;;;;;;;;13.30;99.90;;;;;;5158018;27;19911;-42
2022/11/24 14:29:52;;;;;;;;;;;13.20;99.90;;;;;;5157984;27;19907;-40
2022/11/24 14:32:17;;;;;;;;;;;13.00;99.90;;;;;;5157410;27;20345;-39